Time;durP1;ratioP1;P1;durP2;ratioP2;P2;SDS_P1;SDS_P2;PMS_P1;PMS_P2;Temp;Humidity;BMP_temperature;BMP_pressure;BME280_temperature;BME280_humidity;BME280_pressure;Samples;Min_cycle;Max_cycle;Signal;HPM_P1;HPM_P2
2022/04/19 00:00:42;;;;;;;17.43;11.80;;;;;;;;;;5069279;28;20090;-63
2022/04/19 00:03:09;;;;;;;18.03;11.63;;;;;;;;;;5069636;28;20051;-63
2022/04/19 00:05:36;;;;;;;16.50;11.23;;;;;;;;;;5070296;28;20044;-63
2022/04/19 00:08:03;;;;;;;21.13;13.13;;;;;;;;;;5068032;28;20040;-63
2022/04/19 00:10:29;;;;;;;17.50;11.20;;;;;;;;;;5068182;28;20078;-63
2022/04/19 00:12:56;;;;;;;17.40;11.43;;;;;;;;;;5069425;28;20045;-63
2022/04/19 00:15:22;;;;;;;19.57;12.67;;;;;;;;;;5064685;28;20047;-63
2022/04/19 00:17:48;;;;;;;18.93;10.93;;;;;;;;;;5049904;28;20139;-63
2022/04/19 00:20:15;;;;;;;18.70;11.80;;;;;;;;;;5052135;28;20063;-63
2022/04/19 00:22:41;;;;;;;17.93;11.80;;;;;;;;;;5068178;28;20044;-63
2022/04/19 00:25:08;;;;;;;19.97;12.40;;;;;;;;;;5069403;28;20123;-63
2022/04/19 00:27:34;;;;;;;21.17;13.07;;;;;;;;;;5068864;28;20080;-63
2022/04/19 00:30:01;;;;;;;17.93;12.50;;;;;;;;;;5070066;28;20422;-63
2022/04/19 00:32:27;;;;;;;18.67;12.23;;;;;;;;;;5069914;28;20144;-63
2022/04/19 00:34:53;;;;;;;20.00;12.07;;;;;;;;;;5068874;28;20155;-63
2022/04/19 00:37:19;;;;;;;18.43;11.90;;;;;;;;;;5069006;28;20064;-63
2022/04/19 00:39:45;;;;;;;15.90;11.57;;;;;;;;;;5068876;28;20076;-63
2022/04/19 00:42:12;;;;;;;17.53;10.77;;;;;;;;;;5068804;28;20078;-63
2022/04/19 00:44:39;;;;;;;16.93;11.27;;;;;;;;;;5068805;28;20036;-63
2022/04/19 00:47:09;;;;;;;19.87;12.77;;;;;;;;;;5068819;28;20048;-63
2022/04/19 00:49:39;;;;;;;19.57;13.27;;;;;;;;;;5066244;28;20055;-63
2022/04/19 00:52:06;;;;;;;18.53;12.63;;;;;;;;;;5069344;28;20036;-64
2022/04/19 00:54:32;;;;;;;21.67;13.70;;;;;;;;;;5068658;28;20045;-63
2022/04/19 00:56:58;;;;;;;22.43;13.53;;;;;;;;;;5068494;28;20051;-63
2022/04/19 00:59:25;;;;;;;18.97;13.20;;;;;;;;;;5067207;28;20094;-63
2022/04/19 01:01:51;;;;;;;20.33;13.97;;;;;;;;;;5069343;28;20052;-63
2022/04/19 01:04:17;;;;;;;21.07;13.17;;;;;;;;;;5067827;28;20718;-63
2022/04/19 01:06:43;;;;;;;18.70;12.30;;;;;;;;;;5068800;28;20041;-63
2022/04/19 01:09:09;;;;;;;20.13;13.37;;;;;;;;;;5061825;28;20044;-63
2022/04/19 01:14:20;;;;;;;17.90;12.40;;;;;;;;;;5068297;28;20101;-63
2022/04/19 01:16:46;;;;;;;17.03;10.43;;;;;;;;;;5068227;28;20586;-63
2022/04/19 01:19:16;;;;;;;21.53;12.03;;;;;;;;;;5067220;28;20047;-63
2022/04/19 01:21:43;;;;;;;18.33;11.80;;;;;;;;;;5067724;28;20047;-63
2022/04/19 01:24:13;;;;;;;15.10;10.87;;;;;;;;;;5068548;28;20109;-63
2022/04/19 01:26:39;;;;;;;22.17;11.73;;;;;;;;;;5068186;28;20045;-63
2022/04/19 01:29:04;;;;;;;19.27;12.20;;;;;;;;;;5067642;28;20106;-63
2022/04/19 01:31:30;;;;;;;21.37;12.50;;;;;;;;;;5068275;28;20055;-63
2022/04/19 01:33:56;;;;;;;18.07;12.17;;;;;;;;;;5067914;28;20033;-63
2022/04/19 01:36:22;;;;;;;20.87;13.00;;;;;;;;;;5068480;28;20404;-63
2022/04/19 01:38:48;;;;;;;18.20;11.97;;;;;;;;;;5068245;28;20037;-63
2022/04/19 01:41:14;;;;;;;19.47;11.33;;;;;;;;;;5068089;28;20076;-63
2022/04/19 01:43:41;;;;;;;17.63;11.43;;;;;;;;;;5067687;28;20140;-63
2022/04/19 01:46:07;;;;;;;17.93;11.40;;;;;;;;;;5067392;28;20056;-63
2022/04/19 01:48:33;;;;;;;15.90;10.90;;;;;;;;;;5068748;28;20048;-63
2022/04/19 01:50:59;;;;;;;17.00;11.23;;;;;;;;;;5067892;28;20127;-63
2022/04/19 01:53:27;;;;;;;17.20;10.57;;;;;;;;;;5068231;28;20118;-63
2022/04/19 01:55:53;;;;;;;16.87;11.47;;;;;;;;;;5068262;28;20053;-63
2022/04/19 01:58:18;;;;;;;14.17;9.77;;;;;;;;;;5066375;28;20044;-63
2022/04/19 02:00:44;;;;;;;17.70;10.77;;;;;;;;;;5072700;28;20506;-63
2022/04/19 02:03:10;;;;;;;17.37;10.03;;;;;;;;;;5072639;28;20458;-63
2022/04/19 02:05:36;;;;;;;16.40;10.37;;;;;;;;;;5071486;28;20074;-63
2022/04/19 02:08:02;;;;;;;18.07;10.50;;;;;;;;;;5072716;28;21781;-64
2022/04/19 02:10:28;;;;;;;17.63;11.17;;;;;;;;;;5073445;28;20070;-64
2022/04/19 02:12:54;;;;;;;19.77;11.40;;;;;;;;;;5072614;28;20049;-63
2022/04/19 02:15:20;;;;;;;19.60;12.07;;;;;;;;;;5071711;28;20563;-63
2022/04/19 02:17:48;;;;;;;18.17;10.90;;;;;;;;;;5071883;28;20135;-64
2022/04/19 02:20:16;;;;;;;18.87;10.73;;;;;;;;;;5057660;28;20128;-63
2022/04/19 02:22:42;;;;;;;14.93;10.57;;;;;;;;;;5069319;28;20510;-63
2022/04/19 02:25:09;;;;;;;19.20;12.03;;;;;;;;;;5071637;28;20044;-63
2022/04/19 02:27:35;;;;;;;21.67;12.07;;;;;;;;;;5071272;28;20102;-63
2022/04/19 02:30:03;;;;;;;20.03;12.43;;;;;;;;;;5072254;28;20384;-63
2022/04/19 02:32:29;;;;;;;26.03;12.93;;;;;;;;;;5070936;28;20518;-63
2022/04/19 02:34:55;;;;;;;22.23;13.33;;;;;;;;;;5071387;28;20042;-63
2022/04/19 02:37:22;;;;;;;18.87;12.73;;;;;;;;;;5070123;28;20060;-63
2022/04/19 02:39:48;;;;;;;25.73;12.43;;;;;;;;;;5071580;28;20047;-63
2022/04/19 02:42:14;;;;;;;23.17;13.03;;;;;;;;;;5051378;28;20889;-63
2022/04/19 02:44:40;;;;;;;20.83;12.90;;;;;;;;;;5056679;28;20043;-63
2022/04/19 02:47:06;;;;;;;20.57;11.43;;;;;;;;;;5071933;28;20041;-63
2022/04/19 02:49:36;;;;;;;23.47;13.27;;;;;;;;;;5070978;28;20131;-63
2022/04/19 02:52:03;;;;;;;18.13;11.80;;;;;;;;;;5071380;28;20111;-63
2022/04/19 02:54:29;;;;;;;18.00;11.70;;;;;;;;;;5070569;28;20076;-63
2022/04/19 02:56:54;;;;;;;19.60;12.13;;;;;;;;;;5071223;28;20083;-64
2022/04/19 02:59:20;;;;;;;21.17;12.90;;;;;;;;;;5052148;28;20044;-63
2022/04/19 03:01:46;;;;;;;17.07;11.00;;;;;;;;;;5051572;28;20041;-63
2022/04/19 03:04:12;;;;;;;20.43;13.33;;;;;;;;;;5065866;28;20040;-63
2022/04/19 03:06:38;;;;;;;21.30;11.97;;;;;;;;;;5071280;28;20040;-63
2022/04/19 03:09:04;;;;;;;19.00;11.33;;;;;;;;;;5070545;28;20032;-63
2022/04/19 03:11:32;;;;;;;16.43;11.90;;;;;;;;;;5070152;28;20036;-63
2022/04/19 03:13:58;;;;;;;19.43;11.50;;;;;;;;;;5070950;28;20052;-63
2022/04/19 03:16:24;;;;;;;20.70;13.53;;;;;;;;;;5070502;28;20048;-63
2022/04/19 03:18:50;;;;;;;19.07;11.87;;;;;;;;;;5071161;28;20044;-63
2022/04/19 03:21:16;;;;;;;24.70;13.87;;;;;;;;;;5070863;28;20037;-63
2022/04/19 03:29:12;;;;;;;24.90;14.93;;;;;;;;;;5070418;28;20131;-63
2022/04/19 03:31:38;;;;;;;25.03;13.53;;;;;;;;;;5070600;28;20558;-63
2022/04/19 03:34:04;;;;;;;23.80;14.73;;;;;;;;;;5069697;28;20127;-64
2022/04/19 03:36:30;;;;;;;22.00;13.37;;;;;;;;;;5070470;28;20044;-63
2022/04/19 03:38:56;;;;;;;22.37;12.33;;;;;;;;;;5070374;28;20084;-63
2022/04/19 03:41:22;;;;;;;21.80;12.67;;;;;;;;;;5070425;28;20915;-64
2022/04/19 03:43:48;;;;;;;23.57;12.67;;;;;;;;;;5070600;28;20076;-64
2022/04/19 03:46:14;;;;;;;25.37;14.10;;;;;;;;;;5070249;28;20055;-63
2022/04/19 03:48:40;;;;;;;30.20;16.40;;;;;;;;;;5070881;28;20570;-64
2022/04/19 03:51:06;;;;;;;26.87;15.03;;;;;;;;;;5069406;28;20075;-63
2022/04/19 03:53:32;;;;;;;31.70;16.27;;;;;;;;;;5070255;28;20044;-63
2022/04/19 03:55:59;;;;;;;26.43;14.83;;;;;;;;;;5069802;28;20045;-63
2022/04/19 03:58:26;;;;;;;35.17;17.03;;;;;;;;;;5076756;28;20761;-63
2022/04/19 04:00:52;;;;;;;27.90;16.17;;;;;;;;;;5087516;28;20174;-63
2022/04/19 04:03:18;;;;;;;30.77;15.87;;;;;;;;;;5069508;28;20139;-63
2022/04/19 04:05:44;;;;;;;30.27;16.07;;;;;;;;;;5069712;28;20135;-63
2022/04/19 04:08:10;;;;;;;24.87;13.73;;;;;;;;;;5070464;28;20089;-63
2022/04/19 04:10:36;;;;;;;22.87;14.17;;;;;;;;;;5068880;28;20056;-63
2022/04/19 04:13:04;;;;;;;30.63;16.30;;;;;;;;;;5070063;28;20036;-63
2022/04/19 04:15:30;;;;;;;25.93;14.87;;;;;;;;;;5069479;28;20102;-63
2022/04/19 04:17:56;;;;;;;24.97;14.50;;;;;;;;;;5069754;28;20452;-63
2022/04/19 04:20:22;;;;;;;30.20;17.37;;;;;;;;;;5069333;28;20056;-63
2022/04/19 04:22:48;;;;;;;28.40;17.70;;;;;;;;;;5068043;28;20044;-64
2022/04/19 04:25:14;;;;;;;28.33;16.17;;;;;;;;;;5069681;28;20048;-64
2022/04/19 04:27:40;;;;;;;34.80;18.63;;;;;;;;;;5066481;28;20079;-64
2022/04/19 04:30:06;;;;;;;32.53;15.43;;;;;;;;;;5049539;28;20041;-64
2022/04/19 04:32:32;;;;;;;25.40;14.20;;;;;;;;;;5051101;28;20102;-64
2022/04/19 04:34:58;;;;;;;28.33;16.27;;;;;;;;;;5067299;28;20494;-64
2022/04/19 04:37:24;;;;;;;31.53;16.30;;;;;;;;;;5068155;28;20076;-64
2022/04/19 04:39:50;;;;;;;29.10;15.57;;;;;;;;;;5069197;28;20045;-64
2022/04/19 04:42:16;;;;;;;29.53;16.33;;;;;;;;;;5066071;28;20044;-63
2022/04/19 04:44:42;;;;;;;27.90;15.63;;;;;;;;;;5069060;28;20044;-63
2022/04/19 04:49:53;;;;;;;38.97;15.53;;;;;;;;;;5068785;28;20163;-63
2022/04/19 04:52:19;;;;;;;31.67;17.00;;;;;;;;;;5068711;28;20041;-63
2022/04/19 04:54:45;;;;;;;33.73;18.20;;;;;;;;;;5069074;28;20049;-64
2022/04/19 04:57:11;;;;;;;32.27;17.47;;;;;;;;;;5068682;28;20040;-65
2022/04/19 04:59:37;;;;;;;38.53;19.70;;;;;;;;;;5068081;28;20096;-65
2022/04/19 05:02:04;;;;;;;28.97;17.40;;;;;;;;;;5069399;28;20048;-65
2022/04/19 05:04:30;;;;;;;37.10;19.97;;;;;;;;;;5068229;28;20565;-65
2022/04/19 05:06:56;;;;;;;36.23;18.57;;;;;;;;;;5069740;28;20067;-65
2022/04/19 05:09:22;;;;;;;33.80;18.00;;;;;;;;;;5068476;28;20403;-65
2022/04/19 05:11:52;;;;;;;31.37;17.03;;;;;;;;;;5068243;28;20055;-65
2022/04/19 05:14:18;;;;;;;30.83;17.63;;;;;;;;;;5068207;28;20055;-66
2022/04/19 05:16:45;;;;;;;31.03;17.77;;;;;;;;;;5066376;28;20040;-66
2022/04/19 05:19:11;;;;;;;28.77;16.23;;;;;;;;;;5068846;28;20089;-65
2022/04/19 05:21:37;;;;;;;31.10;16.80;;;;;;;;;;5067526;28;20059;-65
2022/04/19 05:24:04;;;;;;;33.17;18.73;;;;;;;;;;5067424;28;20040;-65
2022/04/19 05:26:30;;;;;;;31.30;17.37;;;;;;;;;;5067738;28;20127;-65
2022/04/19 05:28:56;;;;;;;29.50;15.30;;;;;;;;;;5066070;28;20036;-65
2022/04/19 05:31:23;;;;;;;30.33;17.50;;;;;;;;;;5068495;28;20071;-65
2022/04/19 05:33:49;;;;;;;27.80;16.60;;;;;;;;;;5066511;28;20125;-65
2022/04/19 05:36:15;;;;;;;29.50;16.60;;;;;;;;;;5066311;28;20252;-65
2022/04/19 05:38:41;;;;;;;29.33;15.83;;;;;;;;;;5068560;28;20136;-65
2022/04/19 05:41:07;;;;;;;29.90;17.07;;;;;;;;;;5067624;28;20694;-65
2022/04/19 05:43:33;;;;;;;26.60;15.97;;;;;;;;;;5067510;28;20396;-65
2022/04/19 05:45:59;;;;;;;29.67;17.47;;;;;;;;;;5068022;28;20094;-65
2022/04/19 05:48:25;;;;;;;24.43;15.93;;;;;;;;;;5066949;28;20052;-65
2022/04/19 05:50:51;;;;;;;31.57;16.60;;;;;;;;;;5068430;28;20198;-65
2022/04/19 05:53:18;;;;;;;24.73;15.50;;;;;;;;;;5067603;28;20522;-65
2022/04/19 05:55:43;;;;;;;24.77;15.53;;;;;;;;;;5067963;28;20048;-65
2022/04/19 05:58:09;;;;;;;26.47;15.07;;;;;;;;;;5067712;28;20037;-65
2022/04/19 06:00:35;;;;;;;22.90;14.43;;;;;;;;;;5068041;28;20051;-66
2022/04/19 06:05:47;;;;;;;28.03;16.13;;;;;;;;;;5067362;28;20110;-65
2022/04/19 06:08:14;;;;;;;27.33;16.50;;;;;;;;;;5068494;28;20087;-66
2022/04/19 06:10:40;;;;;;;25.00;16.90;;;;;;;;;;5067730;28;20044;-65
2022/04/19 06:13:07;;;;;;;29.40;16.40;;;;;;;;;;5066250;28;20041;-65
2022/04/19 06:15:32;;;;;;;25.93;16.50;;;;;;;;;;5067936;28;20045;-65
2022/04/19 06:17:58;;;;;;;26.07;16.00;;;;;;;;;;5067561;28;20480;-66
2022/04/19 06:20:25;;;;;;;31.33;16.97;;;;;;;;;;5068075;28;20041;-65
2022/04/19 06:22:51;;;;;;;25.93;16.77;;;;;;;;;;5066980;28;20499;-65
2022/04/19 06:25:17;;;;;;;21.27;12.90;;;;;;;;;;5067993;28;20045;-65
2022/04/19 06:27:43;;;;;;;18.70;11.87;;;;;;;;;;5067364;28;20041;-64
2022/04/19 06:30:10;;;;;;;18.50;11.63;;;;;;;;;;5067992;28;20033;-64
2022/04/19 06:32:36;;;;;;;18.87;11.57;;;;;;;;;;5054240;28;20056;-65
2022/04/19 06:35:02;;;;;;;17.87;10.80;;;;;;;;;;5061080;28;20036;-64
2022/04/19 06:37:30;;;;;;;15.93;9.97;;;;;;;;;;5066854;28;20554;-64
2022/04/19 06:39:59;;;;;;;18.13;9.37;;;;;;;;;;5067897;28;20044;-64
2022/04/19 06:42:25;;;;;;;18.50;9.33;;;;;;;;;;5066879;28;20414;-64
2022/04/19 06:44:51;;;;;;;15.03;9.20;;;;;;;;;;5068455;28;20044;-64
2022/04/19 06:47:17;;;;;;;17.93;8.90;;;;;;;;;;5070830;28;20048;-64
2022/04/19 06:49:43;;;;;;;12.67;9.27;;;;;;;;;;5071330;28;20037;-64
2022/04/19 06:52:09;;;;;;;12.77;8.23;;;;;;;;;;5068366;28;20068;-64
2022/04/19 06:54:38;;;;;;;12.47;8.20;;;;;;;;;;5067423;28;20044;-64
2022/04/19 06:57:05;;;;;;;13.10;8.40;;;;;;;;;;5081249;28;20044;-65
2022/04/19 06:59:31;;;;;;;15.03;8.50;;;;;;;;;;5069047;28;20572;-64
2022/04/19 07:01:57;;;;;;;12.23;8.17;;;;;;;;;;5069843;28;20522;-64
2022/04/19 07:04:23;;;;;;;12.47;7.67;;;;;;;;;;5070437;28;20056;-64
2022/04/19 07:06:49;;;;;;;15.07;8.03;;;;;;;;;;5067248;28;20045;-64
2022/04/19 07:09:15;;;;;;;11.83;7.70;;;;;;;;;;5068807;28;20076;-64
2022/04/19 07:11:41;;;;;;;12.83;7.77;;;;;;;;;;5070712;28;20529;-65
2022/04/19 07:14:07;;;;;;;13.70;8.33;;;;;;;;;;5067820;28;20193;-64
2022/04/19 07:16:33;;;;;;;14.03;8.53;;;;;;;;;;5070357;28;20598;-64
2022/04/19 07:18:59;;;;;;;11.53;7.17;;;;;;;;;;5070401;28;20047;-64
2022/04/19 07:26:55;;;;;;;12.77;7.63;;;;;;;;;;5056173;28;20045;-64
2022/04/19 07:29:21;;;;;;;10.63;7.17;;;;;;;;;;5069593;28;20055;-64
2022/04/19 07:31:48;;;;;;;10.33;7.33;;;;;;;;;;5070560;28;20044;-64
2022/04/19 07:34:14;;;;;;;12.60;8.13;;;;;;;;;;5067869;28;20094;-65
2022/04/19 07:36:41;;;;;;;10.47;7.27;;;;;;;;;;5069176;28;20044;-64
2022/04/19 07:39:11;;;;;;;14.20;7.43;;;;;;;;;;5069249;28;20067;-64
2022/04/19 07:41:39;;;;;;;10.60;6.93;;;;;;;;;;5070027;28;20048;-64
2022/04/19 07:44:06;;;;;;;15.23;7.43;;;;;;;;;;5067662;28;20041;-64
2022/04/19 07:46:33;;;;;;;11.13;6.90;;;;;;;;;;5068954;28;20131;-64
2022/04/19 07:48:59;;;;;;;11.43;7.00;;;;;;;;;;5069073;28;20608;-64
2022/04/19 07:51:25;;;;;;;12.10;7.13;;;;;;;;;;5073907;28;20086;-64
2022/04/19 07:53:52;;;;;;;10.57;6.33;;;;;;;;;;5083758;28;20044;-65
2022/04/19 07:56:18;;;;;;;9.77;6.77;;;;;;;;;;5070712;28;20077;-64
2022/04/19 07:58:46;;;;;;;12.20;6.83;;;;;;;;;;5069323;28;20506;-64
2022/04/19 08:01:12;;;;;;;12.13;6.83;;;;;;;;;;5067456;28;20056;-64
2022/04/19 08:03:38;;;;;;;11.30;6.10;;;;;;;;;;5066162;28;20048;-65
2022/04/19 08:06:05;;;;;;;9.67;6.67;;;;;;;;;;5070678;28;20481;-64
2022/04/19 08:08:31;;;;;;;11.30;7.13;;;;;;;;;;5066672;28;20487;-64
2022/04/19 08:10:57;;;;;;;9.70;6.13;;;;;;;;;;5068313;28;20082;-64
2022/04/19 08:13:24;;;;;;;10.80;6.20;;;;;;;;;;5065963;28;20382;-65
2022/04/19 08:15:50;;;;;;;11.73;5.83;;;;;;;;;;5068202;28;20076;-64
2022/04/19 08:18:18;;;;;;;8.27;4.73;;;;;;;;;;5069044;28;20064;-65
2022/04/19 08:20:44;;;;;;;9.70;4.90;;;;;;;;;;5068244;28;20119;-65
2022/04/19 08:23:11;;;;;;;12.33;5.17;;;;;;;;;;5068266;28;20136;-65
2022/04/19 08:25:37;;;;;;;10.97;5.30;;;;;;;;;;5066945;28;20115;-64
2022/04/19 08:28:04;;;;;;;13.23;4.87;;;;;;;;;;5068642;28;20084;-65
2022/04/19 08:30:29;;;;;;;8.53;5.00;;;;;;;;;;5067174;28;20744;-65
2022/04/19 08:32:56;;;;;;;10.83;5.57;;;;;;;;;;5067128;28;20487;-65
2022/04/19 08:35:22;;;;;;;8.07;5.00;;;;;;;;;;5067941;28;20110;-65
2022/04/19 08:37:48;;;;;;;8.87;4.60;;;;;;;;;;5068877;28;20048;-65
2022/04/19 08:40:14;;;;;;;7.17;3.83;;;;;;;;;;5069036;28;20502;-65
2022/04/19 08:42:40;;;;;;;6.87;4.00;;;;;;;;;;5067024;28;20455;-65
2022/04/19 08:45:07;;;;;;;7.50;4.00;;;;;;;;;;5068116;28;20076;-65
2022/04/19 08:47:37;;;;;;;8.53;5.17;;;;;;;;;;5066555;28;20056;-65
2022/04/19 08:50:04;;;;;;;8.73;3.90;;;;;;;;;;5068704;28;20043;-65
2022/04/19 08:52:32;;;;;;;6.17;3.90;;;;;;;;;;5066064;28;20509;-65
2022/04/19 08:57:42;;;;;;;5.73;3.87;;;;;;;;;;5067324;28;20159;-65
2022/04/19 09:00:09;;;;;;;7.17;3.80;;;;;;;;;;5069053;28;20047;-65
2022/04/19 09:02:37;;;;;;;6.23;3.77;;;;;;;;;;5067403;28;20749;-65
2022/04/19 09:05:23;;;;;;;8.50;3.63;;;;;;;;;;5067645;28;20040;-65
2022/04/19 09:07:50;;;;;;;6.70;3.60;;;;;;;;;;5064152;28;20056;-65
2022/04/19 09:10:25;;;;;;;7.00;3.77;;;;;;;;;;5067343;28;20075;-65
2022/04/19 09:13:05;;;;;;;7.47;3.93;;;;;;;;;;5068524;28;20481;-66
2022/04/19 09:15:32;;;;;;;9.53;4.20;;;;;;;;;;5068336;28;20041;-65
2022/04/19 09:17:58;;;;;;;7.57;3.90;;;;;;;;;;5067181;28;20044;-65
2022/04/19 09:20:24;;;;;;;9.37;5.20;;;;;;;;;;5067711;28;20048;-65
2022/04/19 09:23:00;;;;;;;6.60;4.50;;;;;;;;;;5067378;28;20040;-65
2022/04/19 09:25:26;;;;;;;6.83;4.83;;;;;;;;;;5068351;28;20048;-65
2022/04/19 09:27:54;;;;;;;11.23;4.60;;;;;;;;;;5065981;28;20051;-65
2022/04/19 09:30:20;;;;;;;8.97;4.43;;;;;;;;;;5067049;28;20627;-65
2022/04/19 09:33:03;;;;;;;5.93;3.93;;;;;;;;;;5056113;28;20052;-66
2022/04/19 09:35:30;;;;;;;6.70;4.53;;;;;;;;;;5059031;28;20045;-65
2022/04/19 09:37:56;;;;;;;6.70;4.10;;;;;;;;;;5048314;28;20049;-65
2022/04/19 09:40:33;;;;;;;8.13;4.57;;;;;;;;;;5065621;28;20098;-66
2022/04/19 09:43:06;;;;;;;6.57;4.30;;;;;;;;;;5066323;28;20124;-65
2022/04/19 09:45:44;;;;;;;5.70;3.93;;;;;;;;;;5066949;28;20056;-66
2022/04/19 09:48:15;;;;;;;9.77;4.63;;;;;;;;;;5066507;28;20045;-66
2022/04/19 09:50:47;;;;;;;7.50;3.90;;;;;;;;;;5067287;28;20037;-66
2022/04/19 09:53:17;;;;;;;6.80;3.70;;;;;;;;;;5066776;28;20052;-66
2022/04/19 09:55:50;;;;;;;4.97;2.90;;;;;;;;;;5067681;28;20510;-66
2022/04/19 09:58:17;;;;;;;3.90;2.57;;;;;;;;;;5064397;28;20040;-66
2022/04/19 10:00:44;;;;;;;5.70;2.70;;;;;;;;;;5067264;28;20043;-66
2022/04/19 10:08:41;;;;;;;4.23;2.30;;;;;;;;;;5064109;28;20566;-65
2022/04/19 10:11:07;;;;;;;2.70;1.63;;;;;;;;;;5066856;28;20489;-65
2022/04/19 10:13:33;;;;;;;4.00;1.87;;;;;;;;;;5066609;28;20044;-65
2022/04/19 10:16:00;;;;;;;4.00;1.90;;;;;;;;;;5066620;28;20048;-65
2022/04/19 10:18:27;;;;;;;4.67;2.03;;;;;;;;;;5061096;28;20129;-65
2022/04/19 10:20:55;;;;;;;3.70;2.27;;;;;;;;;;5062531;28;20120;-66
2022/04/19 10:23:32;;;;;;;4.80;2.30;;;;;;;;;;5081423;28;20037;-65
2022/04/19 10:26:12;;;;;;;3.47;2.33;;;;;;;;;;5061245;28;21419;-65
2022/04/19 10:28:38;;;;;;;3.67;2.13;;;;;;;;;;5066158;28;20051;-65
2022/04/19 10:31:04;;;;;;;3.43;2.40;;;;;;;;;;5063772;28;20060;-66
2022/04/19 10:33:39;;;;;;;4.87;1.90;;;;;;;;;;5068595;28;20048;-66
2022/04/19 10:36:15;;;;;;;2.77;1.80;;;;;;;;;;5067438;28;20104;-66
2022/04/19 10:38:42;;;;;;;3.27;2.13;;;;;;;;;;5069909;28;20054;-65
2022/04/19 10:41:08;;;;;;;5.13;2.33;;;;;;;;;;5069839;28;20505;-65
2022/04/19 10:43:34;;;;;;;3.77;2.00;;;;;;;;;;5068661;28;20052;-65
2022/04/19 10:46:19;;;;;;;4.33;2.50;;;;;;;;;;5071332;28;20064;-65
2022/04/19 10:49:11;;;;;;;3.93;2.27;;;;;;;;;;5070810;28;20045;-66
2022/04/19 10:51:37;;;;;;;5.18;2.28;;;;;;;;;;5054966;28;20094;-66
2022/04/19 10:54:03;;;;;;;3.22;1.42;;;;;;;;;;5070748;28;20044;-65
2022/04/19 10:56:29;;;;;;;4.53;2.60;;;;;;;;;;5070945;28;20055;-65
2022/04/19 10:58:55;;;;;;;6.60;2.17;;;;;;;;;;5070886;28;20040;-66
2022/04/19 11:01:39;;;;;;;3.75;2.08;;;;;;;;;;5070539;28;20055;-65
2022/04/19 11:04:05;;;;;;;3.88;1.70;;;;;;;;;;5050642;28;20072;-66
2022/04/19 11:06:36;;;;;;;2.53;1.60;;;;;;;;;;5051121;28;20454;-66
2022/04/19 11:09:22;;;;;;;3.13;1.42;;;;;;;;;;5056297;28;20047;-66
2022/04/19 11:11:52;;;;;;;3.35;1.60;;;;;;;;;;5069717;28;20465;-66
2022/04/19 11:14:18;;;;;;;5.63;1.20;;;;;;;;;;5070334;28;20498;-66
2022/04/19 11:16:44;;;;;;;4.32;1.42;;;;;;;;;;5069834;28;20095;-66
2022/04/19 11:19:15;;;;;;;4.82;1.80;;;;;;;;;;5070933;28;20169;-66
2022/04/19 11:21:48;;;;;;;3.15;1.80;;;;;;;;;;5070084;28;20049;-66
2022/04/19 11:24:34;;;;;;;3.35;1.67;;;;;;;;;;5050761;28;20053;-66
2022/04/19 11:27:00;;;;;;;2.75;1.50;;;;;;;;;;5065161;28;20052;-66
2022/04/19 11:29:26;;;;;;;4.63;1.55;;;;;;;;;;5070470;28;20045;-66
2022/04/19 11:31:52;;;;;;;2.70;1.30;;;;;;;;;;5068456;28;20032;-65
2022/04/19 11:34:18;;;;;;;4.25;1.65;;;;;;;;;;5070049;28;20088;-65
2022/04/19 11:36:44;;;;;;;2.88;1.70;;;;;;;;;;5069787;28;20059;-65
2022/04/19 11:46:44;;;;;;;4.82;2.22;;;;;;;;;;5069732;28;20074;-65
2022/04/19 11:47:47;;;;;;;3.80;1.30;;;;;;;;;;5080678;28;20055;-66
2022/04/19 11:50:24;;;;;;;5.43;1.30;;;;;;;;;;5079454;28;20047;-65
2022/04/19 11:52:51;;;;;;;5.45;1.60;;;;;;;;;;5075148;28;20090;-65
2022/04/19 11:55:18;;;;;;;4.03;1.30;;;;;;;;;;5080541;28;20724;-65
2022/04/19 11:57:44;;;;;;;4.45;1.60;;;;;;;;;;5078712;28;20075;-65
2022/04/19 12:00:16;;;;;;;3.65;1.67;;;;;;;;;;5083284;28;20041;-65
2022/04/19 12:02:42;;;;;;;3.75;1.55;;;;;;;;;;5068319;28;20392;-65
2022/04/19 12:05:08;;;;;;;2.25;1.23;;;;;;;;;;5070570;28;20090;-65
2022/04/19 12:07:45;;;;;;;1.77;1.10;;;;;;;;;;5069356;28;20102;-65
2022/04/19 12:10:11;;;;;;;4.50;1.20;;;;;;;;;;5069456;28;20495;-65
2022/04/19 12:12:37;;;;;;;14.43;1.75;;;;;;;;;;5069539;28;20102;-65
2022/04/19 12:15:03;;;;;;;2.65;1.33;;;;;;;;;;5069387;28;20040;-65
2022/04/19 12:17:30;;;;;;;2.75;1.30;;;;;;;;;;5069375;28;20095;-65
2022/04/19 12:20:05;;;;;;;6.03;1.67;;;;;;;;;;5069023;28;20095;-65
2022/04/19 12:22:33;;;;;;;5.40;1.30;;;;;;;;;;5069502;28;20113;-64
2022/04/19 12:24:59;;;;;;;2.38;1.15;;;;;;;;;;5069282;28;20519;-64
2022/04/19 12:27:27;;;;;;;2.28;1.10;;;;;;;;;;5068441;28;20429;-65
2022/04/19 12:29:55;;;;;;;2.42;1.00;;;;;;;;;;5069966;28;20048;-65
2022/04/19 12:32:21;;;;;;;3.03;1.48;;;;;;;;;;5068861;28;20131;-65
2022/04/19 12:34:47;;;;;;;1.88;0.90;;;;;;;;;;5069680;28;20986;-65
2022/04/19 12:37:17;;;;;;;4.22;1.20;;;;;;;;;;5068379;28;20103;-65
2022/04/19 12:39:59;;;;;;;2.47;1.20;;;;;;;;;;5069462;28;20055;-65
2022/04/19 12:42:25;;;;;;;2.90;1.35;;;;;;;;;;5068003;28;20052;-65
2022/04/19 12:45:07;;;;;;;4.03;1.45;;;;;;;;;;5068794;28;20411;-65
2022/04/19 12:47:33;;;;;;;2.90;1.45;;;;;;;;;;5068902;28;20051;-65
2022/04/19 12:50:10;;;;;;;2.08;1.10;;;;;;;;;;5069290;28;20041;-65
2022/04/19 12:52:37;;;;;;;2.65;1.33;;;;;;;;;;5068664;28;20058;-65
2022/04/19 12:55:04;;;;;;;2.70;1.48;;;;;;;;;;5068990;28;20044;-65
2022/04/19 12:57:30;;;;;;;2.10;1.27;;;;;;;;;;5058708;28;20076;-65
2022/04/19 12:59:57;;;;;;;3.22;1.42;;;;;;;;;;5049219;28;20937;-65
2022/04/19 13:02:23;;;;;;;4.45;1.38;;;;;;;;;;5058133;28;20455;-65
2022/04/19 13:04:50;;;;;;;2.40;1.50;;;;;;;;;;5069083;28;20510;-65
2022/04/19 13:12:46;;;;;;;6.03;1.65;;;;;;;;;;5068509;28;20079;-65
2022/04/19 13:15:13;;;;;;;10.55;2.28;;;;;;;;;;5068572;28;20048;-65
2022/04/19 13:17:41;;;;;;;1.85;1.25;;;;;;;;;;5067862;28;20044;-65
2022/04/19 13:20:08;;;;;;;2.40;1.45;;;;;;;;;;5068673;28;20060;-65
2022/04/19 13:22:34;;;;;;;7.80;1.60;;;;;;;;;;5068048;28;20097;-65
2022/04/19 13:25:00;;;;;;;4.35;1.50;;;;;;;;;;5068594;28;20044;-65
2022/04/19 13:27:29;;;;;;;3.25;1.50;;;;;;;;;;5067935;28;20114;-65
2022/04/19 13:29:55;;;;;;;3.42;1.27;;;;;;;;;;5068956;28;20060;-65
2022/04/19 13:32:22;;;;;;;4.15;1.23;;;;;;;;;;5067545;28;20055;-65
2022/04/19 13:34:48;;;;;;;2.92;1.42;;;;;;;;;;5068242;28;20554;-65
2022/04/19 13:37:16;;;;;;;7.65;1.65;;;;;;;;;;5067257;28;20048;-65
2022/04/19 13:39:42;;;;;;;2.17;1.38;;;;;;;;;;5067427;28;20530;-65
2022/04/19 13:42:08;;;;;;;3.97;1.80;;;;;;;;;;5066307;28;20052;-65
2022/04/19 13:44:34;;;;;;;5.28;2.25;;;;;;;;;;5067968;28;20132;-65
2022/04/19 13:47:00;;;;;;;3.83;1.85;;;;;;;;;;5067160;28;20552;-65
2022/04/19 13:49:28;;;;;;;4.93;2.35;;;;;;;;;;5067898;28;20712;-66
2022/04/19 13:51:55;;;;;;;2.33;1.73;;;;;;;;;;5064886;28;20049;-66
2022/04/19 13:54:21;;;;;;;3.40;1.90;;;;;;;;;;5075949;28;20517;-65
2022/04/19 13:56:48;;;;;;;2.53;1.40;;;;;;;;;;5070244;28;20037;-65
2022/04/19 13:59:15;;;;;;;3.38;2.10;;;;;;;;;;5071497;28;20453;-65
2022/04/19 14:01:41;;;;;;;3.38;2.10;;;;;;;;;;5070901;28;20070;-65
2022/04/19 14:04:07;;;;;;;5.88;2.00;;;;;;;;;;5071264;28;20039;-65
2022/04/19 14:06:38;;;;;;;6.63;2.10;;;;;;;;;;5071394;28;20051;-65
2022/04/19 14:09:04;;;;;;;3.83;1.90;;;;;;;;;;5073537;28;20048;-64
2022/04/19 14:11:30;;;;;;;4.72;2.08;;;;;;;;;;5071591;28;20086;-64
2022/04/19 14:13:56;;;;;;;4.18;2.30;;;;;;;;;;5068496;28;20041;-65
2022/04/19 14:16:24;;;;;;;4.05;2.20;;;;;;;;;;5065046;28;20040;-65
2022/04/19 14:18:51;;;;;;;6.03;1.75;;;;;;;;;;5071426;28;20076;-65
2022/04/19 14:21:17;;;;;;;5.68;2.28;;;;;;;;;;5069741;28;20048;-65
2022/04/19 14:23:43;;;;;;;3.45;1.95;;;;;;;;;;5070776;28;20094;-65
2022/04/19 14:26:09;;;;;;;3.00;1.85;;;;;;;;;;5070185;28;20040;-64
2022/04/19 14:34:04;;;;;;;3.67;1.70;;;;;;;;;;5066666;28;20162;-65
2022/04/19 14:36:30;;;;;;;9.20;1.70;;;;;;;;;;5071022;28;20139;-65
2022/04/19 14:38:56;;;;;;;4.38;1.98;;;;;;;;;;5070843;28;20394;-65
2022/04/19 14:41:22;;;;;;;5.38;1.88;;;;;;;;;;5070461;28;20044;-65
2022/04/19 14:43:48;;;;;;;4.35;2.00;;;;;;;;;;5071131;28;20044;-65
2022/04/19 14:46:14;;;;;;;4.93;2.30;;;;;;;;;;5071667;28;20058;-65
2022/04/19 14:48:41;;;;;;;4.40;2.45;;;;;;;;;;5070799;28;20041;-65
2022/04/19 14:53:52;;;;;;;4.70;2.03;;;;;;;;;;5071013;28;20103;-65
2022/04/19 14:56:18;;;;;;;4.10;1.80;;;;;;;;;;5071372;28;20072;-64
2022/04/19 14:58:44;;;;;;;3.78;1.88;;;;;;;;;;5065092;28;20499;-64
2022/04/19 15:01:10;;;;;;;4.18;1.63;;;;;;;;;;5075788;28;20035;-65
2022/04/19 15:03:36;;;;;;;4.78;1.73;;;;;;;;;;5080465;28;20044;-65
2022/04/19 15:06:02;;;;;;;5.57;2.00;;;;;;;;;;5080290;28;20044;-65
2022/04/19 15:08:28;;;;;;;3.00;1.83;;;;;;;;;;5078620;28;20112;-65
2022/04/19 15:10:54;;;;;;;2.40;1.50;;;;;;;;;;5081175;28;20036;-65
2022/04/19 15:13:20;;;;;;;6.43;1.80;;;;;;;;;;5084302;28;20105;-65
2022/04/19 15:15:49;;;;;;;6.43;1.70;;;;;;;;;;5071085;28;20048;-65
2022/04/19 15:18:15;;;;;;;3.13;1.83;;;;;;;;;;5080228;28;20048;-65